Time;durP1;ratioP1;P1;durP2;ratioP2;P2;SDS_P1;SDS_P2;PMS_P1;PMS_P2;Temp;Humidity;BMP_temperature;BMP_pressure;BME280_temperature;BME280_humidity;BME280_pressure;Samples;Min_cycle;Max_cycle;Signal;HPM_P1;HPM_P2
2023/01/01 00:01:27;;;;;;;13.93;5.75;;;;;;;;;;4991197;28;20026;-47
2023/01/01 00:03:54;;;;;;;12.15;5.35;;;;;;;;;;4990524;28;20719;-45
2023/01/01 00:06:20;;;;;;;16.60;5.68;;;;;;;;;;4990561;28;20117;-48
2023/01/01 00:08:46;;;;;;;12.30;5.00;;;;;;;;;;4990227;28;20614;-45
2023/01/01 00:11:12;;;;;;;16.73;5.00;;;;;;;;;;4987686;28;20061;-45
2023/01/01 00:13:40;;;;;;;13.63;4.88;;;;;;;;;;4990715;28;20070;-46
2023/01/01 00:16:07;;;;;;;13.00;4.90;;;;;;;;;;4989831;28;20041;-45
2023/01/01 00:18:33;;;;;;;12.70;5.38;;;;;;;;;;4991184;28;20045;-45
2023/01/01 00:21:11;;;;;;;15.25;4.88;;;;;;;;;;4990887;28;20023;-45
2023/01/01 00:23:37;;;;;;;13.10;4.60;;;;;;;;;;4989920;28;20070;-45
2023/01/01 00:26:13;;;;;;;11.60;4.15;;;;;;;;;;4985986;28;20599;-45
2023/01/01 00:28:39;;;;;;;12.35;5.05;;;;;;;;;;4988070;28;20437;-45
2023/01/01 00:31:09;;;;;;;13.88;4.70;;;;;;;;;;4989862;28;20030;-48
2023/01/01 00:33:35;;;;;;;9.18;4.65;;;;;;;;;;4990045;28;20519;-45
2023/01/01 00:36:14;;;;;;;15.13;5.35;;;;;;;;;;4989500;28;20125;-46
2023/01/01 00:38:40;;;;;;;11.93;5.30;;;;;;;;;;4986956;28;20507;-46
2023/01/01 00:41:06;;;;;;;12.90;6.05;;;;;;;;;;4988934;28;20034;-49
2023/01/01 00:43:31;;;;;;;16.23;5.03;;;;;;;;;;4989439;28;20134;-47
2023/01/01 00:45:57;;;;;;;19.52;4.95;;;;;;;;;;4990428;28;20037;-45
2023/01/01 00:48:23;;;;;;;16.52;4.70;;;;;;;;;;4989471;28;20101;-46
2023/01/01 00:50:51;;;;;;;14.25;4.78;;;;;;;;;;4989677;28;20030;-46
2023/01/01 00:53:17;;;;;;;12.07;4.78;;;;;;;;;;4989607;28;20042;-45
2023/01/01 00:55:43;;;;;;;15.77;5.38;;;;;;;;;;4986677;28;20537;-46
2023/01/01 00:58:09;;;;;;;16.35;5.10;;;;;;;;;;4989290;28;20046;-45
2023/01/01 01:00:36;;;;;;;16.73;5.05;;;;;;;;;;4988433;28;20451;-48
2023/01/01 01:03:03;;;;;;;11.20;4.95;;;;;;;;;;4989555;28;20043;-45
2023/01/01 01:05:28;;;;;;;11.95;4.50;;;;;;;;;;4987211;28;20045;-45
2023/01/01 01:07:53;;;;;;;11.02;4.38;;;;;;;;;;4989672;28;20038;-45
2023/01/01 01:10:21;;;;;;;11.65;4.53;;;;;;;;;;4988911;28;20028;-45
2023/01/01 01:12:46;;;;;;;24.65;5.90;;;;;;;;;;4988504;28;20126;-48
2023/01/01 01:15:12;;;;;;;16.92;4.78;;;;;;;;;;4988355;28;20469;-47
2023/01/01 01:17:38;;;;;;;13.63;4.90;;;;;;;;;;4989668;28;20514;-45
2023/01/01 01:20:04;;;;;;;14.77;5.10;;;;;;;;;;4989744;28;20053;-44
2023/01/01 01:22:29;;;;;;;18.30;4.75;;;;;;;;;;4988595;28;20557;-45
2023/01/01 01:24:55;;;;;;;19.25;5.00;;;;;;;;;;4989863;28;20034;-50
2023/01/01 01:27:21;;;;;;;17.23;4.53;;;;;;;;;;4988156;28;20037;-50
2023/01/01 01:29:46;;;;;;;9.10;4.38;;;;;;;;;;4989868;28;20034;-50
2023/01/01 01:32:11;;;;;;;10.88;4.00;;;;;;;;;;4989677;28;20395;-47
2023/01/01 01:34:37;;;;;;;12.80;4.97;;;;;;;;;;4989178;28;20038;-44
2023/01/01 01:37:02;;;;;;;14.93;4.20;;;;;;;;;;4989058;28;20062;-45
2023/01/01 01:39:28;;;;;;;14.75;5.03;;;;;;;;;;4985503;28;20038;-46
2023/01/01 01:41:53;;;;;;;11.20;4.22;;;;;;;;;;4988940;28;20034;-45
2023/01/01 01:44:48;;;;;;;14.35;4.07;;;;;;;;;;4988985;28;20517;-47
2023/01/01 01:47:21;;;;;;;14.25;4.60;;;;;;;;;;4987114;28;20035;-46
2023/01/01 01:49:46;;;;;;;;;;;;;;;;;;4987531;28;20125;-45
2023/01/01 01:52:12;;;;;;;12.43;4.30;;;;;;;;;;4988153;28;20008;-47
2023/01/01 01:54:38;;;;;;;19.77;5.15;;;;;;;;;;4987128;28;20030;-45
2023/01/01 01:57:08;;;;;;;14.95;4.43;;;;;;;;;;4987954;28;20085;-45
2023/01/01 01:59:41;;;;;;;20.20;5.03;;;;;;;;;;4985635;28;20117;-45
2023/01/01 02:02:26;;;;;;;9.63;3.65;;;;;;;;;;4987625;28;20058;-45
2023/01/01 02:04:53;;;;;;;17.35;4.25;;;;;;;;;;4988035;28;20499;-45
2023/01/01 02:07:21;;;;;;;10.90;4.43;;;;;;;;;;4987498;28;20109;-48
2023/01/01 02:09:46;;;;;;;19.92;4.85;;;;;;;;;;4986866;28;20379;-45
2023/01/01 02:12:12;;;;;;;18.38;4.50;;;;;;;;;;4988023;28;20042;-45
2023/01/01 02:14:37;;;;;;;13.75;4.40;;;;;;;;;;4988106;28;20080;-45
2023/01/01 02:17:19;;;;;;;16.40;4.75;;;;;;;;;;4988097;28;20137;-44
2023/01/01 02:19:59;;;;;;;20.27;5.15;;;;;;;;;;4988251;28;20057;-47
2023/01/01 02:22:35;;;;;;;14.43;4.47;;;;;;;;;;4987827;28;20078;-43
2023/01/01 02:25:13;;;;;;;9.73;4.22;;;;;;;;;;4985544;28;20028;-45
2023/01/01 02:28:02;;;;;;;21.08;4.88;;;;;;;;;;4987667;28;20035;-45
2023/01/01 02:30:30;;;;;;;17.50;5.05;;;;;;;;;;4984964;28;20145;-44
2023/01/01 02:33:05;;;;;;;15.65;5.13;;;;;;;;;;4988169;28;20031;-44
2023/01/01 02:35:37;;;;;;;11.52;4.80;;;;;;;;;;4985999;28;20534;-46
2023/01/01 02:38:13;;;;;;;13.82;4.97;;;;;;;;;;4986817;28;20167;-44
2023/01/01 02:40:46;;;;;;;15.80;5.03;;;;;;;;;;4985952;28;20026;-48
2023/01/01 02:43:11;;;;;;;11.25;4.50;;;;;;;;;;4987785;28;20054;-45
2023/01/01 02:45:37;;;;;;;25.73;5.90;;;;;;;;;;4985256;28;20026;-51
2023/01/01 02:48:26;;;;;;;17.63;5.22;;;;;;;;;;4986219;28;20038;-45
2023/01/01 02:50:53;;;;;;;14.45;3.95;;;;;;;;;;4987432;28;20174;-45
2023/01/01 02:53:30;;;;;;;14.93;4.22;;;;;;;;;;4986120;28;20531;-46
2023/01/01 02:56:06;;;;;;;13.40;4.30;;;;;;;;;;4986729;28;20488;-45
2023/01/01 03:01:37;;;;;;;21.30;5.05;;;;;;;;;;4987981;28;20073;-45
2023/01/01 03:04:25;;;;;;;13.60;3.97;;;;;;;;;;4985629;28;20038;-45
2023/01/01 03:07:01;;;;;;;14.23;4.75;;;;;;;;;;4985106;28;20565;-44
2023/01/01 03:09:38;;;;;;;14.00;4.22;;;;;;;;;;4983836;28;20031;-45
2023/01/01 03:12:38;;;;;;;14.68;4.78;;;;;;;;;;4986897;28;20430;-45
2023/01/01 03:15:09;;;;;;;19.20;5.07;;;;;;;;;;4986100;28;20034;-46
2023/01/01 03:17:40;;;;;;;13.27;3.97;;;;;;;;;;4984617;28;20069;-45
2023/01/01 03:20:12;;;;;;;11.68;4.10;;;;;;;;;;4987092;28;20117;-45
2023/01/01 03:22:40;;;;;;;14.98;4.55;;;;;;;;;;4986632;28;20037;-45
2023/01/01 03:25:19;;;;;;;11.80;4.68;;;;;;;;;;4986819;28;20546;-48
2023/01/01 03:27:49;;;;;;;18.58;4.70;;;;;;;;;;4987050;28;20046;-45
2023/01/01 03:30:18;;;;;;;11.68;3.83;;;;;;;;;;4987582;28;20041;-49
2023/01/01 03:33:00;;;;;;;16.27;3.97;;;;;;;;;;4985753;28;20395;-48
2023/01/01 03:35:47;;;;;;;15.95;4.68;;;;;;;;;;4984491;28;20018;-48
2023/01/01 03:38:21;;;;;;;15.65;4.00;;;;;;;;;;4983624;28;20053;-45
2023/01/01 03:40:50;;;;;;;17.77;4.25;;;;;;;;;;4986633;28;20026;-44
2023/01/01 03:43:24;;;;;;;14.23;4.53;;;;;;;;;;4986631;28;20077;-45
2023/01/01 03:45:50;;;;;;;12.20;4.22;;;;;;;;;;4983899;28;20927;-44
2023/01/01 03:48:16;;;;;;;14.38;4.15;;;;;;;;;;4986564;28;20483;-44
2023/01/01 03:51:13;;;;;;;17.15;4.78;;;;;;;;;;4986099;28;20119;-45
2023/01/01 03:53:40;;;;;;;16.27;5.65;;;;;;;;;;4985978;28;20051;-45
2023/01/01 03:56:16;;;;;;;17.58;4.30;;;;;;;;;;4986094;28;20066;-46
2023/01/01 03:58:55;;;;;;;15.27;4.45;;;;;;;;;;4983010;28;20073;-47
2023/01/01 04:01:34;;;;;;;13.90;4.68;;;;;;;;;;4984466;28;20038;-45
2023/01/01 04:04:02;;;;;;;23.80;4.85;;;;;;;;;;4986870;28;20074;-44
2023/01/01 04:06:28;;;;;;;13.02;3.95;;;;;;;;;;4985678;28;20030;-45
2023/01/01 04:08:57;;;;;;;17.02;4.38;;;;;;;;;;4984354;28;20049;-49
2023/01/01 04:14:10;;;;;;;13.43;4.55;;;;;;;;;;4987033;28;20058;-47
2023/01/01 04:16:35;;;;;;;12.65;4.75;;;;;;;;;;4986781;28;20026;-45
2023/01/01 04:19:00;;;;;;;19.58;4.90;;;;;;;;;;4986785;28;20038;-46
2023/01/01 04:21:26;;;;;;;11.38;3.72;;;;;;;;;;4985758;28;20030;-45
2023/01/01 04:23:51;;;;;;;19.27;4.78;;;;;;;;;;4986510;28;20332;-46
2023/01/01 04:26:16;;;;;;;13.77;4.20;;;;;;;;;;4986154;28;20061;-46
2023/01/01 04:28:42;;;;;;;15.90;4.60;;;;;;;;;;4986134;28;20508;-45
2023/01/01 04:31:08;;;;;;;16.15;4.63;;;;;;;;;;4987774;28;20026;-46
2023/01/01 04:33:34;;;;;;;18.02;4.55;;;;;;;;;;4985438;28;20538;-45
2023/01/01 04:36:07;;;;;;;14.80;4.63;;;;;;;;;;4987975;28;20403;-45
2023/01/01 04:38:33;;;;;;;13.93;4.20;;;;;;;;;;4988414;28;20463;-48
2023/01/01 04:41:00;;;;;;;11.85;4.57;;;;;;;;;;4987474;28;20046;-48
2023/01/01 04:43:26;;;;;;;22.73;5.10;;;;;;;;;;4989780;28;20065;-48
2023/01/01 04:45:59;;;;;;;16.90;4.68;;;;;;;;;;4990242;28;20030;-45
2023/01/01 04:48:25;;;;;;;11.60;4.28;;;;;;;;;;4987029;28;20050;-53
2023/01/01 04:50:59;;;;;;;10.05;3.80;;;;;;;;;;4988152;28;20033;-44
2023/01/01 04:53:28;;;;;;;14.98;4.25;;;;;;;;;;4986364;28;20063;-44
2023/01/01 04:55:53;;;;;;;10.10;4.00;;;;;;;;;;4988729;28;20034;-45
2023/01/01 04:58:19;;;;;;;15.93;4.60;;;;;;;;;;4989515;28;20104;-45
2023/01/01 05:00:49;;;;;;;13.15;4.25;;;;;;;;;;4989692;28;20356;-47
2023/01/01 05:03:15;;;;;;;11.35;4.50;;;;;;;;;;4991568;28;20084;-45
2023/01/01 05:05:40;;;;;;;11.98;4.30;;;;;;;;;;4988192;28;20709;-45
2023/01/01 05:08:05;;;;;;;14.73;4.50;;;;;;;;;;4988006;28;20492;-45
2023/01/01 05:10:31;;;;;;;16.58;4.03;;;;;;;;;;4987703;28;20038;-45
2023/01/01 05:12:56;;;;;;;21.13;4.88;;;;;;;;;;4989457;28;20038;-46
2023/01/01 05:15:22;;;;;;;15.95;3.90;;;;;;;;;;4989683;28;20030;-45
2023/01/01 05:17:47;;;;;;;19.92;4.57;;;;;;;;;;4987056;28;20070;-45
2023/01/01 05:20:12;;;;;;;10.50;3.92;;;;;;;;;;4990896;28;20117;-44
2023/01/01 05:22:38;;;;;;;16.90;4.18;;;;;;;;;;4988291;28;20042;-44
2023/01/01 05:25:03;;;;;;;24.23;7.40;;;;;;;;;;4989771;28;20065;-47
2023/01/01 05:27:29;;;;;;;16.23;3.75;;;;;;;;;;4988620;28;20121;-44
2023/01/01 05:29:54;;;;;;;14.40;4.78;;;;;;;;;;4988925;28;20041;-45
2023/01/01 05:32:20;;;;;;;16.77;4.60;;;;;;;;;;4987238;28;20049;-45
2023/01/01 05:34:45;;;;;;;16.67;4.63;;;;;;;;;;4989100;28;20026;-45
2023/01/01 05:37:10;;;;;;;13.90;3.90;;;;;;;;;;4986922;28;21060;-45
2023/01/01 05:39:36;;;;;;;12.43;4.68;;;;;;;;;;4988829;28;20030;-45
2023/01/01 05:42:01;;;;;;;12.38;4.57;;;;;;;;;;4989168;28;20078;-46
2023/01/01 05:44:27;;;;;;;13.50;4.22;;;;;;;;;;4989562;28;20482;-44
2023/01/01 05:46:52;;;;;;;13.48;3.97;;;;;;;;;;4987678;28;20492;-45
2023/01/01 05:49:17;;;;;;;16.17;4.40;;;;;;;;;;4985052;28;20070;-45
2023/01/01 05:51:43;;;;;;;14.93;3.88;;;;;;;;;;4987597;28;20214;-44
2023/01/01 05:54:09;;;;;;;15.48;4.40;;;;;;;;;;4988638;28;20030;-45
2023/01/01 05:56:34;;;;;;;22.02;4.72;;;;;;;;;;4987777;28;20060;-45
2023/01/01 05:59:00;;;;;;;13.93;4.38;;;;;;;;;;4985285;28;20061;-47
2023/01/01 06:01:28;;;;;;;13.23;3.88;;;;;;;;;;4988734;28;20045;-45
2023/01/01 06:03:55;;;;;;;14.13;4.57;;;;;;;;;;4987775;28;20440;-46
2023/01/01 06:06:27;;;;;;;14.52;4.60;;;;;;;;;;4988401;28;20022;-50
2023/01/01 06:09:00;;;;;;;15.10;4.47;;;;;;;;;;4986073;28;20061;-44
2023/01/01 06:11:27;;;;;;;10.25;3.70;;;;;;;;;;4988853;28;20030;-45
2023/01/01 06:13:54;;;;;;;11.95;4.53;;;;;;;;;;4986784;28;20057;-45
2023/01/01 06:16:20;;;;;;;11.43;4.03;;;;;;;;;;4988029;28;20030;-46
2023/01/01 06:18:45;;;;;;;12.50;4.45;;;;;;;;;;4986262;28;20057;-45
2023/01/01 06:21:22;;;;;;;16.02;4.13;;;;;;;;;;4988886;28;20027;-45
2023/01/01 06:23:47;;;;;;;18.88;4.55;;;;;;;;;;4987929;28;20060;-46
2023/01/01 06:26:16;;;;;;;14.65;4.15;;;;;;;;;;4987332;28;20026;-49
2023/01/01 06:28:42;;;;;;;10.85;4.78;;;;;;;;;;4986112;28;20861;-47
2023/01/01 06:31:10;;;;;;;14.13;4.25;;;;;;;;;;4987889;28;20360;-45
2023/01/01 06:33:36;;;;;;;16.20;4.80;;;;;;;;;;4987843;28;20042;-45
2023/01/01 06:36:03;;;;;;;12.60;4.30;;;;;;;;;;4986331;28;20037;-44
2023/01/01 06:38:34;;;;;;;20.00;5.28;;;;;;;;;;4986393;28;20054;-45
2023/01/01 06:41:02;;;;;;;10.65;4.97;;;;;;;;;;4987816;28;20030;-46
2023/01/01 06:43:30;;;;;;;14.05;5.53;;;;;;;;;;4988084;28;20092;-45
2023/01/01 06:46:06;;;;;;;19.75;5.57;;;;;;;;;;4986803;28;20122;-45
2023/01/01 06:48:34;;;;;;;16.33;4.15;;;;;;;;;;4985554;28;20049;-50
2023/01/01 06:51:21;;;;;;;20.10;4.90;;;;;;;;;;4989582;28;20384;-44
2023/01/01 06:53:50;;;;;;;12.65;5.03;;;;;;;;;;4987434;28;20046;-44
2023/01/01 06:56:16;;;;;;;16.75;6.72;;;;;;;;;;4987289;28;20038;-45
2023/01/01 06:58:41;;;;;;;17.02;6.07;;;;;;;;;;4986045;28;20112;-45
2023/01/01 07:01:17;;;;;;;14.40;5.20;;;;;;;;;;4987832;28;20037;-45
2023/01/01 07:03:48;;;;;;;13.32;4.72;;;;;;;;;;4985776;28;20081;-45
2023/01/01 07:06:13;;;;;;;14.55;5.65;;;;;;;;;;4986152;28;20512;-47
2023/01/01 07:08:39;;;;;;;15.55;5.35;;;;;;;;;;4986030;28;20046;-45
2023/01/01 07:11:04;;;;;;;14.27;4.63;;;;;;;;;;4987186;28;20038;-43
2023/01/01 07:13:30;;;;;;;16.05;5.25;;;;;;;;;;4985546;28;20039;-44
2023/01/01 07:15:55;;;;;;;20.30;5.50;;;;;;;;;;4986229;28;20105;-44
2023/01/01 07:18:22;;;;;;;14.70;6.03;;;;;;;;;;4987426;28;20109;-44
2023/01/01 07:20:56;;;;;;;17.25;5.43;;;;;;;;;;4987468;28;20026;-45
2023/01/01 07:23:22;;;;;;;15.13;7.63;;;;;;;;;;4984466;28;20050;-45
2023/01/01 07:25:48;;;;;;;23.30;7.93;;;;;;;;;;4986873;28;20030;-45
2023/01/01 07:28:14;;;;;;;13.55;5.45;;;;;;;;;;4986356;28;20289;-47
2023/01/01 07:30:39;;;;;;;21.13;8.55;;;;;;;;;;4986709;28;20064;-45
2023/01/01 07:33:05;;;;;;;18.58;5.35;;;;;;;;;;4987791;28;20492;-45
2023/01/01 07:35:30;;;;;;;14.77;5.72;;;;;;;;;;4987544;28;20038;-44
2023/01/01 07:37:56;;;;;;;21.10;7.28;;;;;;;;;;4985830;28;20038;-45
2023/01/01 07:40:21;;;;;;;15.90;4.90;;;;;;;;;;4987218;28;20027;-44
2023/01/01 07:42:46;;;;;;;12.75;4.88;;;;;;;;;;4987313;28;20046;-45
2023/01/01 07:45:12;;;;;;;12.45;5.53;;;;;;;;;;4983800;28;20030;-45
2023/01/01 07:47:38;;;;;;;15.85;4.53;;;;;;;;;;4987649;28;20035;-44
2023/01/01 07:50:04;;;;;;;14.35;4.80;;;;;;;;;;4986329;28;20022;-50
2023/01/01 07:52:29;;;;;;;15.13;4.75;;;;;;;;;;4987396;28;20743;-46
2023/01/01 07:54:55;;;;;;;19.45;5.30;;;;;;;;;;4986133;28;20026;-47
2023/01/01 07:57:20;;;;;;;14.55;4.35;;;;;;;;;;4986404;28;20038;-45
2023/01/01 07:59:45;;;;;;;13.55;5.45;;;;;;;;;;4986162;28;20103;-47
2023/01/01 08:02:11;;;;;;;16.10;6.00;;;;;;;;;;4986528;28;20039;-47
2023/01/01 08:04:37;;;;;;;10.45;4.70;;;;;;;;;;4987045;28;20033;-44
2023/01/01 08:07:03;;;;;;;16.52;4.65;;;;;;;;;;4985242;28;20046;-44
2023/01/01 08:09:28;;;;;;;16.88;5.43;;;;;;;;;;4987701;28;20038;-45
2023/01/01 08:11:53;;;;;;;17.63;6.70;;;;;;;;;;4991303;28;20108;-45
2023/01/01 08:14:19;;;;;;;19.70;7.78;;;;;;;;;;4990639;28;20034;-45
2023/01/01 08:16:44;;;;;;;12.52;6.15;;;;;;;;;;4988913;28;20554;-45
2023/01/01 08:19:09;;;;;;;14.07;4.75;;;;;;;;;;4989145;28;20141;-45
2023/01/01 08:21:35;;;;;;;16.55;4.55;;;;;;;;;;4989690;28;20038;-48
2023/01/01 08:24:00;;;;;;;11.57;5.38;;;;;;;;;;4990599;28;20031;-45
2023/01/01 08:26:31;;;;;;;12.00;5.10;;;;;;;;;;4990869;28;20562;-43
2023/01/01 08:28:57;;;;;;;15.05;4.65;;;;;;;;;;4987685;28;20165;-45
2023/01/01 08:31:22;;;;;;;9.10;4.10;;;;;;;;;;4989548;28;20154;-45
2023/01/01 08:33:48;;;;;;;11.82;3.60;;;;;;;;;;4990502;28;20444;-45
2023/01/01 08:36:15;;;;;;;12.43;3.78;;;;;;;;;;4989796;28;20030;-45
2023/01/01 08:38:41;;;;;;;11.68;4.18;;;;;;;;;;4990270;28;20129;-47
2023/01/01 08:41:06;;;;;;;8.75;3.55;;;;;;;;;;4988782;28;20505;-48
2023/01/01 08:43:32;;;;;;;12.90;4.07;;;;;;;;;;4990609;28;20050;-47
2023/01/01 08:45:57;;;;;;;14.35;4.95;;;;;;;;;;4987703;28;20409;-44
2023/01/01 08:48:22;;;;;;;12.95;5.45;;;;;;;;;;4989500;28;20035;-45
2023/01/01 08:50:55;;;;;;;17.67;5.10;;;;;;;;;;4986826;28;20431;-45
2023/01/01 08:53:21;;;;;;;20.05;6.57;;;;;;;;;;4989687;28;20050;-45
2023/01/01 08:56:02;;;;;;;20.02;7.25;;;;;;;;;;4989961;28;22393;-45
2023/01/01 08:58:28;;;;;;;19.05;7.43;;;;;;;;;;4988205;28;20193;-47
2023/01/01 09:00:54;;;;;;;17.45;6.93;;;;;;;;;;4989916;28;20039;-47
2023/01/01 09:03:20;;;;;;;16.25;6.68;;;;;;;;;;4989448;28;20407;-45
2023/01/01 09:05:45;;;;;;;11.60;4.13;;;;;;;;;;4987948;28;20378;-45
2023/01/01 09:08:11;;;;;;;17.23;4.72;;;;;;;;;;4988785;28;20066;-45
2023/01/01 09:10:37;;;;;;;21.67;5.25;;;;;;;;;;4988908;28;20037;-48
2023/01/01 09:13:03;;;;;;;14.32;4.72;;;;;;;;;;4989676;28;20046;-44
2023/01/01 09:15:28;;;;;;;11.38;4.10;;;;;;;;;;4989130;28;20519;-51
2023/01/01 09:17:53;;;;;;;10.15;4.32;;;;;;;;;;4983542;28;20057;-45
2023/01/01 09:20:19;;;;;;;13.50;3.80;;;;;;;;;;4970536;28;20030;-45
2023/01/01 09:22:44;;;;;;;14.55;4.68;;;;;;;;;;4976985;28;20070;-48
2023/01/01 09:25:09;;;;;;;13.82;3.83;;;;;;;;;;4987933;28;20033;-45
2023/01/01 09:27:35;;;;;;;8.82;3.60;;;;;;;;;;4989785;28;20066;-46
2023/01/01 09:30:00;;;;;;;13.93;4.20;;;;;;;;;;4989771;28;20046;-45
2023/01/01 09:32:26;;;;;;;14.35;4.10;;;;;;;;;;4989255;28;20069;-45
2023/01/01 09:34:53;;;;;;;13.88;4.57;;;;;;;;;;4986538;28;20470;-48
2023/01/01 09:37:18;;;;;;;11.77;4.97;;;;;;;;;;4980670;28;20399;-45
2023/01/01 09:39:44;;;;;;;10.73;4.32;;;;;;;;;;4984682;28;20026;-45
2023/01/01 09:42:31;;;;;;;13.60;4.63;;;;;;;;;;4987902;28;20089;-45
2023/01/01 09:45:04;;;;;;;12.02;4.28;;;;;;;;;;4988120;28;20475;-45
2023/01/01 09:47:32;;;;;;;13.25;4.78;;;;;;;;;;4984835;28;20092;-45
2023/01/01 09:50:03;;;;;;;18.08;6.15;;;;;;;;;;4988327;28;20030;-45
2023/01/01 09:52:39;;;;;;;12.35;5.60;;;;;;;;;;4985103;28;20038;-45
2023/01/01 09:55:23;;;;;;;15.75;5.25;;;;;;;;;;4987668;28;20026;-45
2023/01/01 09:57:49;;;;;;;10.60;4.45;;;;;;;;;;4987041;28;20142;-50
2023/01/01 10:00:17;;;;;;;13.35;4.57;;;;;;;;;;4989012;28;20169;-47
2023/01/01 10:02:54;;;;;;;9.75;4.05;;;;;;;;;;4986781;28;20088;-46
2023/01/01 10:05:44;;;;;;;10.07;5.00;;;;;;;;;;4988750;28;20570;-45
2023/01/01 10:08:47;;;;;;;13.18;4.38;;;;;;;;;;4986299;28;20487;-51
2023/01/01 10:11:27;;;;;;;18.45;4.80;;;;;;;;;;4987485;28;20042;-45
2023/01/01 10:13:56;;;;;;;17.42;4.10;;;;;;;;;;4985783;28;20403;-46
2023/01/01 10:16:43;;;;;;;16.27;4.28;;;;;;;;;;4986218;28;20034;-47
2023/01/01 10:19:30;;;;;;;15.20;4.20;;;;;;;;;;4987065;28;20100;-45
2023/01/01 10:22:02;;;;;;;19.40;4.40;;;;;;;;;;4986665;28;20042;-45
2023/01/01 10:24:43;;;;;;;12.98;4.00;;;;;;;;;;4985712;28;20411;-46
2023/01/01 10:27:31;;;;;;;10.95;3.33;;;;;;;;;;4986350;28;20540;-47
2023/01/01 10:29:58;;;;;;;10.65;3.85;;;;;;;;;;4982961;28;20026;-45
2023/01/01 10:32:31;;;;;;;22.13;3.78;;;;;;;;;;4987722;28;20577;-46
2023/01/01 10:34:57;;;;;;;11.60;3.58;;;;;;;;;;4988124;28;20109;-45
2023/01/01 10:37:23;;;;;;;19.00;3.80;;;;;;;;;;4986287;28;20410;-45
2023/01/01 10:39:49;;;;;;;13.85;2.60;;;;;;;;;;4984566;28;20030;-50
2023/01/01 10:42:15;;;;;;;9.85;3.60;;;;;;;;;;4989385;28;20064;-50
2023/01/01 10:44:41;;;;;;;18.67;3.42;;;;;;;;;;4987129;28;20057;-49
2023/01/01 10:47:28;;;;;;;8.38;2.50;;;;;;;;;;4986161;28;20066;-50
2023/01/01 10:50:06;;;;;;;10.95;2.70;;;;;;;;;;4987803;28;20030;-49
2023/01/01 10:52:41;;;;;;;16.33;3.50;;;;;;;;;;4986778;28;20126;-48
2023/01/01 10:55:22;;;;;;;7.40;2.60;;;;;;;;;;4987448;28;20092;-51
2023/01/01 10:57:47;;;;;;;12.68;2.97;;;;;;;;;;4986650;28;20456;-51
2023/01/01 11:00:23;;;;;;;13.90;2.88;;;;;;;;;;4988169;28;20045;-46
2023/01/01 11:03:16;;;;;;;11.38;2.97;;;;;;;;;;4986057;28;20034;-50
2023/01/01 11:06:00;;;;;;;10.35;2.80;;;;;;;;;;4985698;28;20085;-49
2023/01/01 11:08:27;;;;;;;11.73;2.80;;;;;;;;;;4984313;28;20039;-52
2023/01/01 11:10:53;;;;;;;10.73;2.88;;;;;;;;;;4986921;28;20120;-52
2023/01/01 11:13:20;;;;;;;11.35;2.90;;;;;;;;;;4986595;28;20074;-53
2023/01/01 11:15:46;;;;;;;10.82;3.00;;;;;;;;;;4987344;28;20026;-47
2023/01/01 11:18:22;;;;;;;13.82;3.65;;;;;;;;;;4985664;28;20042;-54
2023/01/01 11:20:53;;;;;;;7.93;2.45;;;;;;;;;;4987314;28;20380;-48
2023/01/01 11:23:30;;;;;;;13.05;2.67;;;;;;;;;;4986089;28;20538;-49
2023/01/01 11:26:25;;;;;;;8.05;2.70;;;;;;;;;;4987313;28;20545;-49
2023/01/01 11:29:14;;;;;;;10.35;2.85;;;;;;;;;;4983988;28;20062;-46
2023/01/01 11:31:39;;;;;;;16.20;3.35;;;;;;;;;;4977565;28;20498;-46
2023/01/01 11:34:36;;;;;;;9.57;2.50;;;;;;;;;;4986978;28;20046;-47
2023/01/01 11:37:27;;;;;;;11.00;3.15;;;;;;;;;;4983529;28;20106;-53
2023/01/01 11:39:56;;;;;;;17.45;3.45;;;;;;;;;;4988833;28;20044;-47
2023/01/01 11:42:24;;;;;;;8.45;2.70;;;;;;;;;;4988122;28;20038;-47
2023/01/01 11:44:57;;;;;;;16.73;3.00;;;;;;;;;;4987398;28;20585;-47
2023/01/01 11:47:34;;;;;;;9.40;2.90;;;;;;;;;;4989042;28;20053;-47
2023/01/01 11:50:20;;;;;;;7.85;2.70;;;;;;;;;;4991544;28;20035;-46
2023/01/01 11:52:48;;;;;;;9.75;3.05;;;;;;;;;;4989667;28;20043;-46
2023/01/01 11:55:19;;;;;;;13.07;2.97;;;;;;;;;;4991001;28;20059;-45
2023/01/01 11:57:54;;;;;;;11.00;2.65;;;;;;;;;;4987617;28;20054;-43
2023/01/01 12:00:19;;;;;;;12.07;3.30;;;;;;;;;;4987572;28;20110;-45
2023/01/01 12:02:58;;;;;;;9.73;3.67;;;;;;;;;;4990551;28;20125;-49
2023/01/01 12:05:35;;;;;;;18.23;3.50;;;;;;;;;;4990825;28;20041;-48
2023/01/01 12:08:05;;;;;;;13.55;3.15;;;;;;;;;;4986663;28;20046;-45
2023/01/01 12:10:43;;;;;;;18.13;4.15;;;;;;;;;;4989320;28;20034;-45
2023/01/01 12:13:19;;;;;;;6.25;2.80;;;;;;;;;;4989890;28;20030;-45
2023/01/01 12:15:57;;;;;;;26.27;2.95;;;;;;;;;;4989601;28;20464;-49
2023/01/01 12:18:31;;;;;;;9.05;3.75;;;;;;;;;;4988110;28;20046;-46
2023/01/01 12:21:07;;;;;;;11.70;2.92;;;;;;;;;;4989779;28;20033;-49
2023/01/01 12:23:33;;;;;;;9.57;2.80;;;;;;;;;;4986937;28;20050;-45
2023/01/01 12:26:04;;;;;;;10.48;2.90;;;;;;;;;;4989359;28;20176;-45
2023/01/01 12:28:43;;;;;;;11.23;3.08;;;;;;;;;;4988939;28;20099;-53
2023/01/01 12:31:22;;;;;;;19.98;3.72;;;;;;;;;;4988153;28;20069;-45
2023/01/01 12:34:05;;;;;;;9.55;3.28;;;;;;;;;;4986246;28;20077;-51
2023/01/01 12:36:37;;;;;;;11.52;3.05;;;;;;;;;;4990555;28;20542;-48
2023/01/01 12:39:40;;;;;;;14.57;2.92;;;;;;;;;;4990119;28;20030;-48
2023/01/01 12:42:19;;;;;;;15.90;3.85;;;;;;;;;;4986833;28;20149;-45
2023/01/01 12:45:32;;;;;;;12.93;2.85;;;;;;;;;;4990062;28;20030;-45
2023/01/01 12:48:15;;;;;;;14.75;3.55;;;;;;;;;;4982718;28;20046;-45
2023/01/01 12:51:22;;;;;;;12.02;3.03;;;;;;;;;;4988281;28;20495;-45
2023/01/01 12:54:21;;;;;;;15.57;3.83;;;;;;;;;;4986510;28;20030;-48
2023/01/01 12:57:18;;;;;;;17.92;3.47;;;;;;;;;;4987848;28;20133;-45
2023/01/01 12:59:49;;;;;;;12.90;3.45;;;;;;;;;;4986871;28;20104;-45
2023/01/01 13:02:20;;;;;;;17.98;3.22;;;;;;;;;;4990389;28;20446;-45
2023/01/01 13:04:50;;;;;;;18.73;3.40;;;;;;;;;;4988639;28;20041;-45
2023/01/01 13:07:22;;;;;;;10.07;3.13;;;;;;;;;;4988215;28;20046;-45
2023/01/01 13:09:48;;;;;;;18.10;3.53;;;;;;;;;;4989071;28;20459;-45
2023/01/01 13:12:17;;;;;;;18.60;3.95;;;;;;;;;;4989390;28;20129;-46
2023/01/01 13:14:45;;;;;;;14.40;3.35;;;;;;;;;;4988996;28;20030;-46
2023/01/01 13:17:25;;;;;;;11.55;3.35;;;;;;;;;;4988682;28;20365;-47
2023/01/01 13:20:15;;;;;;;19.85;3.30;;;;;;;;;;4989959;28;20034;-47
2023/01/01 13:22:43;;;;;;;19.40;4.03;;;;;;;;;;4990193;28;20049;-47
2023/01/01 13:25:09;;;;;;;17.90;3.40;;;;;;;;;;4989180;28;20041;-47
2023/01/01 13:28:00;;;;;;;12.45;3.20;;;;;;;;;;4988736;28;20046;-45
2023/01/01 13:30:34;;;;;;;18.23;3.30;;;;;;;;;;4986609;28;20122;-47
2023/01/01 13:33:17;;;;;;;11.88;3.20;;;;;;;;;;4985235;28;20045;-46
2023/01/01 13:35:42;;;;;;;17.63;3.53;;;;;;;;;;4989057;28;20117;-47
2023/01/01 13:38:47;;;;;;;22.20;3.70;;;;;;;;;;4988524;28;20759;-46
2023/01/01 13:41:39;;;;;;;16.85;4.28;;;;;;;;;;4992529;28;20077;-45
2023/01/01 13:44:05;;;;;;;15.15;3.97;;;;;;;;;;4994692;28;20645;-45
2023/01/01 13:46:37;;;;;;;17.80;3.15;;;;;;;;;;4995644;28;20081;-48
2023/01/01 13:49:12;;;;;;;13.43;3.38;;;;;;;;;;4994206;28;20034;-53
2023/01/01 13:52:11;;;;;;;18.77;3.85;;;;;;;;;;4992703;28;20052;-46
2023/01/01 13:55:01;;;;;;;18.70;4.63;;;;;;;;;;4997467;28;20038;-47
2023/01/01 13:57:55;;;;;;;16.30;4.63;;;;;;;;;;4985130;28;20138;-46
2023/01/01 14:00:32;;;;;;;12.80;3.65;;;;;;;;;;4993165;28;20113;-46
2023/01/01 14:03:13;;;;;;;15.52;4.32;;;;;;;;;;4992521;28;20049;-46
2023/01/01 14:05:46;;;;;;;13.10;3.40;;;;;;;;;;4994056;28;20104;-46
2023/01/01 14:08:28;;;;;;;19.42;4.25;;;;;;;;;;4992021;28;20112;-46
2023/01/01 14:10:54;;;;;;;16.20;4.10;;;;;;;;;;4989607;28;20030;-47
2023/01/01 14:13:26;;;;;;;24.80;4.10;;;;;;;;;;4985056;28;20106;-45
2023/01/01 14:15:56;;;;;;;12.52;4.55;;;;;;;;;;4986114;28;20028;-48
2023/01/01 14:18:30;;;;;;;18.60;4.53;;;;;;;;;;4988303;28;20491;-51
2023/01/01 14:20:55;;;;;;;17.70;4.38;;;;;;;;;;4988908;28;20430;-44
2023/01/01 14:23:27;;;;;;;17.90;3.40;;;;;;;;;;4987657;28;20031;-44
2023/01/01 14:25:52;;;;;;;21.20;4.43;;;;;;;;;;4987917;28;20045;-45
2023/01/01 14:28:28;;;;;;;15.40;3.63;;;;;;;;;;4986246;28;20034;-44
2023/01/01 14:30:54;;;;;;;24.85;4.57;;;;;;;;;;4987512;28;20022;-47
2023/01/01 14:33:31;;;;;;;16.50;4.28;;;;;;;;;;4988819;28;20140;-46
2023/01/01 14:36:01;;;;;;;20.00;3.67;;;;;;;;;;4987006;28;20057;-48
2023/01/01 14:38:32;;;;;;;16.23;4.43;;;;;;;;;;4986724;28;20066;-45
2023/01/01 14:41:10;;;;;;;14.53;4.23;;;;;;;;;;4986698;28;20042;-45
2023/01/01 14:43:37;;;;;;;21.70;3.83;;;;;;;;;;4987207;28;20042;-44
2023/01/01 14:46:07;;;;;;;17.17;4.57;;;;;;;;;;4986785;28;20034;-45
2023/01/01 14:48:34;;;;;;;19.33;3.70;;;;;;;;;;4986977;28;20059;-44
2023/01/01 14:50:59;;;;;;;22.63;4.32;;;;;;;;;;4987958;28;20041;-45
2023/01/01 14:53:32;;;;;;;21.13;3.65;;;;;;;;;;4986106;28;20585;-47
2023/01/01 14:55:57;;;;;;;21.02;3.50;;;;;;;;;;4988159;28;20094;-45
2023/01/01 14:58:26;;;;;;;18.30;3.38;;;;;;;;;;4982426;28;21677;-46
2023/01/01 15:00:52;;;;;;;13.43;3.80;;;;;;;;;;4985530;28;20186;-47